createdAt,value
2022-07-31T00:01:55.528Z,95.70
2022-07-31T00:04:28.314Z,96.30
2022-07-31T00:07:01.264Z,96.20
2022-07-31T00:09:49.093Z,96.30
2022-07-31T00:12:26.023Z,96.60
2022-07-31T00:14:58.255Z,96.30
2022-07-31T00:17:29.994Z,96.30
2022-07-31T00:20:02.893Z,96.80
2022-07-31T00:22:35.939Z,96.40
2022-07-31T00:25:09.137Z,96.40
2022-07-31T00:27:42.518Z,96.70
2022-07-31T00:30:17.258Z,97.40
2022-07-31T00:32:51.859Z,97.10
2022-07-31T00:35:24.049Z,97.50
2022-07-31T00:38:24.785Z,98.10
2022-07-31T00:40:49.405Z,98.30
2022-07-31T00:43:24.077Z,97.80
2022-07-31T00:45:59.865Z,98.10
2022-07-31T00:48:31.627Z,98.40
2022-07-31T00:51:06.264Z,97.70
2022-07-31T00:53:38.631Z,97.80
2022-07-31T00:56:10.983Z,97.80
2022-07-31T00:58:43.613Z,97.80
2022-07-31T01:01:15.449Z,97.90
2022-07-31T01:03:48.036Z,97.70
2022-07-31T01:06:20.827Z,97.40
2022-07-31T01:08:53.076Z,98.00
2022-07-31T01:11:32.875Z,97.80
2022-07-31T01:14:11.092Z,98.70
2022-07-31T01:16:52.460Z,97.90
2022-07-31T01:19:38.137Z,98.10
2022-07-31T01:22:58.108Z,98.30
2022-07-31T01:26:01.471Z,98.40
2022-07-31T01:29:01.342Z,98.60
2022-07-31T01:31:59.314Z,98.70
2022-07-31T01:34:33.991Z,98.70
2022-07-31T01:37:16.187Z,99.00
2022-07-31T01:40:02.122Z,99.30
2022-07-31T01:42:37.875Z,99.30
2022-07-31T01:45:11.743Z,99.20
2022-07-31T01:47:45.791Z,99.10
2022-07-31T01:50:42.702Z,99.30
2022-07-31T01:53:20.136Z,99.30
2022-07-31T01:56:02.050Z,99.90
2022-07-31T01:58:44.037Z,99.10
2022-07-31T02:01:39.913Z,99.00
2022-07-31T02:04:15.602Z,99.10
2022-07-31T02:06:49.644Z,99.20
2022-07-31T02:09:24.439Z,99.20
2022-07-31T02:11:56.971Z,99.30
2022-07-31T02:14:31.170Z,99.20
2022-07-31T02:17:03.986Z,99.40
2022-07-31T02:20:01.015Z,99.90
2022-07-31T02:22:34.021Z,99.20
2022-07-31T02:25:08.296Z,99.90
2022-07-31T02:27:55.451Z,99.20
2022-07-31T02:30:38.834Z,99.40
2022-07-31T02:33:25.789Z,99.50
2022-07-31T02:35:59.429Z,99.30
2022-07-31T02:38:34.395Z,99.00
2022-07-31T02:43:57.823Z,99.50
2022-07-31T02:46:30.911Z,99.70
2022-07-31T02:49:04.342Z,99.90
2022-07-31T02:51:39.728Z,99.90
2022-07-31T02:54:16.044Z,99.90
2022-07-31T02:56:48.922Z,99.90
2022-07-31T02:59:22.738Z,99.90
2022-07-31T03:02:04.711Z,99.90
2022-07-31T03:04:44.482Z,99.90
2022-07-31T03:07:17.578Z,99.90
2022-07-31T03:09:51.788Z,99.90
2022-07-31T03:12:52.540Z,99.90
2022-07-31T03:15:26.361Z,99.90
2022-07-31T03:18:00.058Z,99.90
2022-07-31T03:20:42.825Z,99.90
2022-07-31T03:23:16.012Z,99.90
2022-07-31T03:25:58.219Z,99.90
2022-07-31T03:28:31.014Z,99.90
2022-07-31T03:31:03.408Z,99.90
2022-07-31T03:33:36.488Z,99.90
2022-07-31T03:36:09.952Z,99.90
2022-07-31T03:38:43.979Z,99.90
2022-07-31T03:41:38.018Z,99.90
2022-07-31T03:44:11.772Z,99.90
2022-07-31T03:46:43.844Z,99.90
2022-07-31T03:49:17.782Z,99.90
2022-07-31T03:51:49.746Z,99.90
2022-07-31T03:54:22.391Z,99.90
2022-07-31T03:59:49.131Z,99.90
2022-07-31T04:02:22.028Z,99.90
2022-07-31T04:05:00.001Z,99.90
2022-07-31T04:07:34.851Z,99.90
2022-07-31T04:10:08.228Z,99.90
2022-07-31T04:15:13.500Z,99.90
2022-07-31T04:17:46.199Z,99.90
2022-07-31T04:20:22.006Z,99.90
2022-07-31T04:22:55.822Z,99.90
2022-07-31T04:25:46.347Z,99.90
2022-07-31T04:28:30.923Z,99.90
2022-07-31T04:41:38.450Z,99.90
2022-07-31T04:44:11.185Z,99.90
2022-07-31T04:47:00.651Z,99.90
2022-07-31T04:52:09.769Z,99.90
2022-07-31T04:54:42.117Z,99.90
2022-07-31T04:57:21.597Z,99.90
2022-07-31T04:59:58.985Z,99.90
2022-07-31T05:02:35.915Z,99.90
2022-07-31T05:05:09.620Z,99.90
2022-07-31T05:07:47.013Z,99.90
2022-07-31T05:10:42.200Z,99.90
2022-07-31T05:13:15.992Z,99.90
2022-07-31T05:18:22.606Z,99.90
2022-07-31T05:21:15.042Z,99.90
2022-07-31T05:24:06.195Z,99.90
2022-07-31T05:26:53.780Z,99.90
2022-07-31T05:29:25.761Z,99.90
2022-07-31T05:37:15.745Z,99.90
2022-07-31T05:39:48.434Z,99.90
2022-07-31T05:42:38.899Z,99.90
2022-07-31T05:45:28.893Z,99.90
2022-07-31T05:48:01.086Z,99.90
2022-07-31T05:50:35.819Z,99.60
2022-07-31T05:53:17.730Z,99.80
2022-07-31T05:56:12.223Z,99.40
2022-07-31T05:58:48.436Z,99.60
2022-07-31T06:01:21.275Z,99.80
2022-07-31T06:03:53.908Z,99.90
2022-07-31T06:06:29.566Z,99.90
2022-07-31T06:09:04.502Z,99.90
2022-07-31T06:11:47.510Z,99.90
2022-07-31T06:14:19.723Z,99.90
2022-07-31T06:17:09.237Z,99.20
2022-07-31T06:19:43.602Z,99.00
2022-07-31T06:22:16.983Z,98.90
2022-07-31T06:24:49.760Z,98.40
2022-07-31T06:27:34.058Z,98.60
2022-07-31T06:30:08.615Z,98.70
2022-07-31T06:32:40.675Z,98.30
2022-07-31T06:35:13.424Z,98.00
2022-07-31T06:38:05.235Z,96.50
2022-07-31T06:40:51.834Z,96.70
2022-07-31T06:43:40.639Z,97.20
2022-07-31T06:46:39.832Z,96.60
2022-07-31T06:49:57.373Z,96.20
2022-07-31T06:52:32.549Z,95.70
2022-07-31T06:55:05.741Z,94.70
2022-07-31T06:57:39.153Z,93.90
2022-07-31T07:00:19.521Z,94.20
2022-07-31T07:02:55.703Z,93.80
2022-07-31T07:05:29.827Z,93.30
2022-07-31T07:08:02.474Z,91.70
2022-07-31T07:10:36.515Z,90.00
2022-07-31T07:13:46.113Z,87.10
2022-07-31T07:16:22.221Z,85.20
2022-07-31T07:19:01.361Z,81.80
2022-07-31T07:21:34.239Z,79.70
2022-07-31T07:24:06.458Z,78.30
2022-07-31T07:26:48.905Z,76.10
2022-07-31T07:29:20.824Z,75.00
2022-07-31T07:31:53.446Z,73.80
2022-07-31T07:34:27.703Z,71.10
2022-07-31T07:36:59.605Z,69.20
2022-07-31T07:39:35.494Z,68.20
2022-07-31T07:42:07.583Z,66.70
2022-07-31T07:44:40.407Z,64.80
2022-07-31T07:47:13.175Z,63.90
2022-07-31T07:49:44.990Z,63.40
2022-07-31T07:52:46.831Z,60.50
2022-07-31T07:55:44.687Z,58.80
2022-07-31T07:58:41.125Z,59.60
2022-07-31T08:01:42.492Z,58.40
2022-07-31T08:04:23.582Z,57.40
2022-07-31T08:06:55.756Z,58.70
2022-07-31T08:09:31.385Z,57.70
2022-07-31T08:12:05.120Z,58.20
2022-07-31T08:14:56.153Z,59.80
2022-07-31T08:18:06.679Z,60.50
2022-07-31T08:20:39.894Z,61.90
2022-07-31T08:23:12.700Z,61.30
2022-07-31T08:25:51.579Z,60.90
2022-07-31T08:28:27.073Z,60.50
2022-07-31T08:31:00.408Z,59.80
2022-07-31T08:33:35.626Z,59.00
2022-07-31T08:36:09.144Z,58.90
2022-07-31T08:38:48.211Z,58.40
2022-07-31T08:41:41.005Z,59.50
2022-07-31T08:44:14.710Z,60.50
2022-07-31T08:46:47.752Z,62.10
2022-07-31T08:49:24.587Z,63.00
2022-07-31T08:51:59.282Z,62.50
2022-07-31T08:54:51.765Z,61.30
2022-07-31T08:57:27.291Z,59.60
2022-07-31T08:59:59.242Z,61.10
2022-07-31T09:02:32.935Z,60.40
2022-07-31T09:05:25.103Z,59.50
2022-07-31T09:07:59.676Z,59.10
2022-07-31T09:10:31.811Z,58.20
2022-07-31T09:13:18.018Z,58.00
2022-07-31T09:15:57.258Z,58.60
2022-07-31T09:18:29.983Z,58.70
2022-07-31T09:21:08.817Z,58.30
2022-07-31T09:23:49.086Z,60.10
2022-07-31T09:26:34.308Z,56.90
2022-07-31T09:29:12.890Z,57.10
2022-07-31T09:31:46.488Z,57.50
2022-07-31T09:34:30.956Z,58.20
2022-07-31T09:37:21.514Z,57.10
2022-07-31T09:40:12.756Z,58.40
2022-07-31T09:43:19.794Z,57.20
2022-07-31T09:46:00.171Z,56.20
2022-07-31T09:48:32.477Z,57.20
2022-07-31T09:51:08.726Z,57.20
2022-07-31T09:53:53.694Z,56.50
2022-07-31T09:57:13.795Z,56.30
2022-07-31T09:59:48.783Z,57.40
2022-07-31T10:02:22.674Z,59.10
2022-07-31T10:04:55.851Z,58.30
2022-07-31T10:07:32.879Z,58.80
2022-07-31T10:10:17.946Z,57.80
2022-07-31T10:13:03.489Z,58.90
2022-07-31T10:15:37.832Z,59.20
2022-07-31T10:18:35.638Z,59.00
2022-07-31T10:21:37.953Z,59.60
2022-07-31T10:24:23.845Z,60.90
2022-07-31T10:27:09.257Z,61.00
2022-07-31T10:29:45.955Z,61.00
2022-07-31T10:32:17.897Z,60.50
2022-07-31T10:35:17.977Z,60.70
2022-07-31T10:38:23.611Z,62.00
2022-07-31T10:41:42.376Z,60.10
2022-07-31T10:44:23.228Z,60.60
2022-07-31T10:47:17.476Z,59.30
2022-07-31T10:50:06.613Z,58.40
2022-07-31T10:53:08.245Z,58.80
2022-07-31T10:56:05.331Z,60.20
2022-07-31T10:58:58.043Z,59.50
2022-07-31T11:01:52.981Z,59.60
2022-07-31T11:04:44.378Z,58.20
2022-07-31T11:07:44.978Z,58.10
2022-07-31T11:10:53.785Z,57.50
2022-07-31T11:13:53.432Z,56.70
2022-07-31T11:16:54.205Z,56.70
2022-07-31T11:19:45.698Z,56.60
2022-07-31T11:22:30.549Z,56.80
2022-07-31T11:25:05.046Z,57.30
2022-07-31T11:27:39.137Z,57.90
2022-07-31T11:30:13.650Z,58.10
2022-07-31T11:32:50.834Z,56.70
2022-07-31T11:35:31.849Z,57.50
2022-07-31T11:38:04.118Z,57.10
2022-07-31T11:40:47.460Z,57.60
2022-07-31T11:43:25.979Z,59.00
2022-07-31T11:45:58.354Z,60.00
2022-07-31T11:48:39.016Z,60.30
2022-07-31T11:51:17.414Z,61.60
2022-07-31T11:53:57.402Z,59.00
2022-07-31T11:56:30.194Z,59.40
2022-07-31T11:59:03.176Z,58.50
2022-07-31T12:01:38.266Z,58.50
2022-07-31T12:04:18.967Z,59.40
2022-07-31T12:06:57.167Z,58.80
2022-07-31T12:10:02.671Z,57.80
2022-07-31T12:12:23.935Z,58.80
2022-07-31T12:15:00.452Z,59.70
2022-07-31T12:17:33.038Z,58.90
2022-07-31T12:20:10.591Z,59.00
2022-07-31T12:22:42.780Z,57.40
2022-07-31T12:25:15.421Z,58.20
2022-07-31T12:27:54.356Z,57.80
2022-07-31T12:30:29.975Z,57.00
2022-07-31T12:33:08.462Z,57.80
2022-07-31T12:35:54.930Z,58.60
2022-07-31T12:38:47.780Z,57.40
2022-07-31T12:41:21.122Z,57.20
2022-07-31T12:43:53.281Z,57.50
2022-07-31T12:46:38.442Z,57.90
2022-07-31T12:49:11.818Z,57.60
2022-07-31T12:51:46.848Z,58.70
2022-07-31T12:54:21.310Z,59.00
2022-07-31T12:56:53.326Z,59.70
2022-07-31T12:59:26.511Z,59.00
2022-07-31T13:01:58.457Z,59.90
2022-07-31T13:04:31.433Z,59.60
2022-07-31T13:07:04.127Z,60.00
2022-07-31T13:09:36.518Z,59.70
2022-07-31T13:12:09.683Z,59.30
2022-07-31T13:14:42.323Z,59.10
2022-07-31T13:17:14.214Z,58.80
2022-07-31T13:19:46.867Z,60.80
2022-07-31T13:22:18.621Z,59.60
2022-07-31T13:24:51.579Z,58.70
2022-07-31T13:27:23.585Z,57.90
2022-07-31T13:29:56.632Z,57.60
2022-07-31T13:32:28.492Z,58.20
2022-07-31T13:35:25.391Z,58.10
2022-07-31T13:37:54.378Z,57.70
2022-07-31T13:40:45.837Z,58.60
2022-07-31T13:43:18.773Z,58.50
2022-07-31T13:45:51.502Z,58.10
2022-07-31T13:48:24.148Z,57.60
2022-07-31T13:50:56.047Z,58.00
2022-07-31T13:53:28.734Z,58.70
2022-07-31T13:56:00.712Z,59.20
2022-07-31T13:58:33.375Z,58.90
2022-07-31T14:01:05.974Z,58.40
2022-07-31T14:03:38.759Z,58.00
2022-07-31T14:06:10.836Z,56.60
2022-07-31T14:08:49.943Z,56.40
2022-07-31T14:11:23.302Z,58.00
2022-07-31T14:13:55.998Z,57.60
2022-07-31T14:16:29.991Z,57.80
2022-07-31T14:19:01.845Z,56.70
2022-07-31T14:21:35.374Z,57.70
2022-07-31T14:24:07.442Z,56.80
2022-07-31T14:26:40.145Z,57.00
2022-07-31T14:29:12.041Z,59.20
2022-07-31T14:31:44.836Z,58.70
2022-07-31T14:34:17.207Z,58.20
2022-07-31T14:36:50.195Z,58.20
2022-07-31T14:39:22.110Z,60.10
2022-07-31T14:41:54.864Z,58.60
2022-07-31T14:44:28.652Z,57.90
2022-07-31T14:47:07.792Z,57.60
2022-07-31T14:50:09.923Z,57.90
2022-07-31T14:52:34.364Z,58.20
2022-07-31T14:55:06.774Z,58.40
2022-07-31T14:57:40.001Z,57.50
2022-07-31T15:00:13.199Z,57.30
2022-07-31T15:02:46.440Z,57.40
2022-07-31T15:06:50.914Z,58.00
2022-07-31T15:08:11.111Z,58.00
2022-07-31T15:10:43.001Z,57.90
2022-07-31T15:13:15.234Z,57.40
2022-07-31T15:15:48.476Z,58.40
2022-07-31T15:18:21.288Z,57.90
2022-07-31T15:20:58.119Z,59.20
2022-07-31T15:23:35.628Z,57.70
2022-07-31T15:26:08.463Z,58.40
2022-07-31T15:28:41.902Z,58.60
2022-07-31T15:31:13.746Z,57.80
2022-07-31T15:33:47.030Z,58.10
2022-07-31T15:36:19.110Z,57.90
2022-07-31T15:38:51.754Z,57.80
2022-07-31T15:41:23.598Z,57.80
2022-07-31T15:43:56.083Z,56.90
2022-07-31T15:46:28.211Z,56.80
2022-07-31T15:49:02.359Z,56.60
2022-07-31T15:51:35.015Z,56.80
2022-07-31T15:54:07.442Z,58.70
2022-07-31T15:56:39.865Z,57.00
2022-07-31T15:59:11.826Z,57.80
2022-07-31T16:01:44.845Z,57.30
2022-07-31T16:04:17.264Z,57.80
2022-07-31T16:06:50.644Z,59.00
2022-07-31T16:09:24.908Z,58.50
2022-07-31T16:12:03.585Z,58.20
2022-07-31T16:17:11.910Z,57.70
2022-07-31T16:19:44.954Z,58.20
2022-07-31T16:22:16.851Z,58.30
2022-07-31T16:24:51.807Z,59.20
2022-07-31T16:27:23.787Z,58.20
2022-07-31T16:29:59.391Z,58.90
2022-07-31T16:32:35.166Z,57.90
2022-07-31T16:35:09.932Z,58.00
2022-07-31T16:37:51.234Z,57.80
2022-07-31T16:40:29.709Z,59.60
2022-07-31T16:43:50.478Z,59.00
2022-07-31T16:46:01.229Z,58.20
2022-07-31T16:48:33.210Z,58.00
2022-07-31T16:51:07.143Z,58.50
2022-07-31T16:54:13.980Z,58.80
2022-07-31T16:56:31.843Z,57.80
2022-07-31T16:59:05.092Z,57.90
2022-07-31T17:01:57.218Z,58.00
2022-07-31T17:04:30.552Z,58.80
2022-07-31T17:07:03.810Z,58.90
2022-07-31T17:09:35.966Z,59.30
2022-07-31T17:12:16.001Z,58.20
2022-07-31T17:15:21.388Z,59.50
2022-07-31T17:17:54.611Z,59.20
2022-07-31T17:20:28.648Z,59.50
2022-07-31T17:23:06.334Z,59.30
2022-07-31T17:25:42.438Z,58.60
2022-07-31T17:28:16.070Z,59.40
2022-07-31T17:30:48.355Z,59.60
2022-07-31T17:36:15.571Z,58.20
2022-07-31T17:41:37.852Z,58.90
2022-07-31T17:44:11.310Z,59.70
2022-07-31T17:46:48.280Z,59.90
2022-07-31T17:49:22.074Z,59.40
2022-07-31T17:51:58.912Z,58.80
2022-07-31T17:54:33.261Z,59.00
2022-07-31T17:57:06.035Z,58.50
2022-07-31T17:59:38.047Z,59.00
2022-07-31T18:02:11.189Z,59.90
2022-07-31T18:04:45.398Z,58.90
2022-07-31T18:07:19.902Z,60.60
2022-07-31T18:09:51.847Z,59.00
2022-07-31T18:12:26.189Z,59.20
2022-07-31T18:14:58.113Z,59.30
2022-07-31T18:17:32.203Z,59.90
2022-07-31T18:20:06.105Z,59.60
2022-07-31T18:22:49.168Z,59.70
2022-07-31T18:25:22.545Z,59.80
2022-07-31T18:27:57.546Z,57.90
2022-07-31T18:30:30.769Z,60.50
2022-07-31T18:33:07.174Z,60.90
2022-07-31T18:35:39.628Z,61.30
2022-07-31T18:38:12.240Z,62.00
2022-07-31T18:40:44.380Z,60.30
2022-07-31T18:43:17.138Z,60.60
2022-07-31T18:45:49.369Z,60.00
2022-07-31T18:48:22.137Z,59.50
2022-07-31T18:51:02.052Z,59.40
2022-07-31T18:53:36.686Z,59.60
2022-07-31T18:56:08.779Z,59.60
2022-07-31T18:58:45.082Z,59.90
2022-07-31T19:01:17.053Z,60.70
2022-07-31T19:03:50.013Z,61.60
2022-07-31T19:06:25.058Z,60.50
2022-07-31T19:08:58.251Z,60.50
2022-07-31T19:11:34.102Z,60.50
2022-07-31T19:14:07.254Z,60.80
2022-07-31T19:16:39.853Z,60.90
2022-07-31T19:19:13.828Z,60.90
2022-07-31T19:21:47.263Z,60.90
2022-07-31T19:26:52.249Z,60.90
2022-07-31T19:29:24.807Z,63.40
2022-07-31T19:31:59.568Z,61.50
2022-07-31T19:34:31.592Z,62.20
2022-07-31T19:37:04.539Z,61.90
2022-07-31T19:39:40.404Z,63.20
2022-07-31T19:42:13.844Z,62.10
2022-07-31T19:44:45.674Z,61.80
2022-07-31T19:47:18.341Z,64.10
2022-07-31T19:49:52.060Z,63.30
2022-07-31T19:52:24.677Z,66.80
2022-07-31T19:54:56.895Z,65.10
2022-07-31T19:57:28.813Z,66.50
2022-07-31T20:00:01.836Z,66.20
2022-07-31T20:02:37.121Z,67.50
2022-07-31T20:05:11.031Z,67.00
2022-07-31T20:07:42.843Z,66.70
2022-07-31T20:10:15.220Z,66.00
2022-07-31T20:12:46.986Z,66.20
2022-07-31T20:15:19.658Z,66.40
2022-07-31T20:17:51.834Z,66.60
2022-07-31T20:20:23.735Z,66.90
2022-07-31T20:22:56.678Z,66.20
2022-07-31T20:25:28.490Z,67.10
2022-07-31T20:28:01.553Z,68.60
2022-07-31T20:30:33.404Z,66.40
2022-07-31T20:33:06.035Z,66.50
2022-07-31T20:35:48.412Z,66.20
2022-07-31T20:38:23.739Z,66.40
2022-07-31T20:40:56.156Z,67.20
2022-07-31T20:43:30.495Z,66.60
2022-07-31T20:46:02.782Z,68.00
2022-07-31T20:48:37.275Z,67.90
2022-07-31T20:51:13.572Z,69.80
2022-07-31T20:53:45.456Z,70.50
2022-07-31T20:56:18.622Z,70.90
2022-07-31T20:58:51.955Z,70.70
2022-07-31T21:01:26.445Z,70.50
2022-07-31T21:03:58.346Z,71.80
2022-07-31T21:06:31.071Z,73.70
2022-07-31T21:09:05.052Z,72.20
2022-07-31T21:11:36.834Z,72.60
2022-07-31T21:14:09.869Z,73.90
2022-07-31T21:16:41.690Z,75.30
2022-07-31T21:19:14.463Z,74.90
2022-07-31T21:21:46.273Z,74.60
2022-07-31T21:24:19.578Z,74.10
2022-07-31T21:26:53.745Z,74.20
2022-07-31T21:29:30.939Z,73.80
2022-07-31T21:32:03.291Z,74.20
2022-07-31T21:34:37.406Z,74.50
2022-07-31T21:37:10.953Z,74.30
2022-07-31T21:39:48.621Z,74.60
2022-07-31T21:42:21.506Z,75.30
2022-07-31T21:44:56.223Z,75.50
2022-07-31T21:47:52.691Z,75.80
2022-07-31T21:50:28.996Z,78.40
2022-07-31T21:53:02.168Z,76.60
2022-07-31T21:55:34.795Z,76.70
2022-07-31T21:58:08.073Z,77.20
2022-07-31T22:00:39.962Z,78.80
2022-07-31T22:03:12.735Z,77.30
2022-07-31T22:06:03.571Z,76.70
2022-07-31T22:08:36.059Z,76.00
2022-07-31T22:11:07.889Z,78.00
2022-07-31T22:13:40.493Z,77.60
2022-07-31T22:16:12.781Z,77.60
2022-07-31T22:18:44.925Z,76.80
2022-07-31T22:21:19.915Z,77.30
2022-07-31T22:23:51.837Z,77.00
2022-07-31T22:26:24.935Z,77.40
2022-07-31T22:28:57.230Z,77.30
2022-07-31T22:31:30.017Z,77.70
2022-07-31T22:34:02.425Z,77.40
2022-07-31T22:36:34.314Z,77.90
2022-07-31T22:39:07.035Z,78.00
2022-07-31T22:41:39.124Z,77.60
2022-07-31T22:44:15.370Z,77.70
2022-07-31T22:46:48.535Z,77.80
2022-07-31T22:49:21.921Z,78.00
2022-07-31T22:51:54.243Z,78.40
2022-07-31T22:54:26.540Z,79.20
2022-07-31T22:56:58.293Z,79.60
2022-07-31T22:59:30.859Z,83.00
2022-07-31T23:02:04.301Z,81.60
2022-07-31T23:04:37.517Z,82.60
2022-07-31T23:07:09.874Z,84.00
2022-07-31T23:09:42.614Z,83.80
2022-07-31T23:12:14.431Z,84.30
2022-07-31T23:14:46.979Z,84.40
2022-07-31T23:17:22.288Z,84.10
2022-07-31T23:19:55.721Z,84.30
2022-07-31T23:22:30.728Z,83.90
2022-07-31T23:25:07.051Z,84.10
2022-07-31T23:27:39.690Z,84.00
2022-07-31T23:30:11.514Z,83.90
2022-07-31T23:32:44.182Z,83.80
2022-07-31T23:35:16.673Z,83.30
2022-07-31T23:37:48.433Z,84.30
2022-07-31T23:40:21.031Z,85.40
2022-07-31T23:42:53.216Z,85.60
2022-07-31T23:45:25.026Z,87.20
2022-07-31T23:47:58.962Z,87.30
2022-07-31T23:50:31.685Z,86.50
2022-07-31T23:53:03.548Z,86.70
2022-07-31T23:55:41.717Z,86.60
2022-07-31T23:58:14.670Z,86.80
